sensor_id;sensor_type;location;lat;lon;timestamp;P1;durP1;ratioP1;P2;durP2;ratioP2
14770;SDS011;7477;45.222;5.688;2022-09-09T00:00:55;2.85;;;1.27;;
14770;SDS011;7477;45.222;5.688;2022-09-09T00:04:38;2.78;;;1.23;;
14770;SDS011;7477;45.222;5.688;2022-09-09T00:07:59;2.88;;;1.40;;
14770;SDS011;7477;45.222;5.688;2022-09-09T00:15:18;1.45;;;1.25;;
14770;SDS011;7477;45.222;5.688;2022-09-09T00:18:49;4.95;;;1.45;;
14770;SDS011;7477;45.222;5.688;2022-09-09T00:22:33;4.95;;;1.20;;
14770;SDS011;7477;45.222;5.688;2022-09-09T00:29:38;1.27;;;1.17;;
14770;SDS011;7477;45.222;5.688;2022-09-09T00:33:20;2.60;;;1.55;;
14770;SDS011;7477;45.222;5.688;2022-09-09T00:36:41;3.17;;;1.40;;
14770;SDS011;7477;45.222;5.688;2022-09-09T00:40:05;5.05;;;1.20;;
14770;SDS011;7477;45.222;5.688;2022-09-09T00:47:49;2.80;;;1.50;;
14770;SDS011;7477;45.222;5.688;2022-09-09T00:51:17;6.53;;;1.20;;
14770;SDS011;7477;45.222;5.688;2022-09-09T00:58:28;2.58;;;1.60;;
14770;SDS011;7477;45.222;5.688;2022-09-09T01:01:47;1.67;;;1.00;;
14770;SDS011;7477;45.222;5.688;2022-09-09T01:05:11;3.33;;;1.17;;
14770;SDS011;7477;45.222;5.688;2022-09-09T01:12:11;7.13;;;1.27;;
14770;SDS011;7477;45.222;5.688;2022-09-09T01:15:33;2.97;;;1.23;;
14770;SDS011;7477;45.222;5.688;2022-09-09T01:18:53;1.35;;;1.25;;
14770;SDS011;7477;45.222;5.688;2022-09-09T01:29:49;1.35;;;1.13;;
14770;SDS011;7477;45.222;5.688;2022-09-09T01:33:10;10.60;;;1.90;;
14770;SDS011;7477;45.222;5.688;2022-09-09T01:40:02;3.47;;;1.60;;
14770;SDS011;7477;45.222;5.688;2022-09-09T01:43:21;3.83;;;1.10;;
14770;SDS011;7477;45.222;5.688;2022-09-09T01:46:42;1.33;;;1.23;;
14770;SDS011;7477;45.222;5.688;2022-09-09T01:53:58;1.13;;;1.05;;
14770;SDS011;7477;45.222;5.688;2022-09-09T01:57:41;3.22;;;1.33;;
14770;SDS011;7477;45.222;5.688;2022-09-09T02:01:35;2.65;;;1.20;;
14770;SDS011;7477;45.222;5.688;2022-09-09T02:08:44;4.50;;;1.23;;
14770;SDS011;7477;45.222;5.688;2022-09-09T02:12:11;2.75;;;1.20;;
14770;SDS011;7477;45.222;5.688;2022-09-09T02:15:39;1.65;;;1.13;;
14770;SDS011;7477;45.222;5.688;2022-09-09T02:22:44;1.55;;;1.17;;
14770;SDS011;7477;45.222;5.688;2022-09-09T02:26:09;4.28;;;1.48;;
14770;SDS011;7477;45.222;5.688;2022-09-09T02:29:33;3.10;;;1.02;;
14770;SDS011;7477;45.222;5.688;2022-09-09T02:32:56;3.45;;;1.10;;
14770;SDS011;7477;45.222;5.688;2022-09-09T02:36:17;3.25;;;1.30;;
14770;SDS011;7477;45.222;5.688;2022-09-09T02:39:40;1.30;;;1.20;;
14770;SDS011;7477;45.222;5.688;2022-09-09T02:43:00;3.80;;;1.40;;
14770;SDS011;7477;45.222;5.688;2022-09-09T02:46:32;4.57;;;1.13;;
14770;SDS011;7477;45.222;5.688;2022-09-09T02:54:01;5.70;;;1.20;;
14770;SDS011;7477;45.222;5.688;2022-09-09T02:57:24;1.90;;;1.80;;
14770;SDS011;7477;45.222;5.688;2022-09-09T03:00:47;7.38;;;1.33;;
14770;SDS011;7477;45.222;5.688;2022-09-09T03:04:08;5.03;;;1.15;;
14770;SDS011;7477;45.222;5.688;2022-09-09T03:07:28;2.97;;;1.30;;
14770;SDS011;7477;45.222;5.688;2022-09-09T03:10:47;5.28;;;1.40;;
14770;SDS011;7477;45.222;5.688;2022-09-09T03:14:07;11.20;;;1.48;;
14770;SDS011;7477;45.222;5.688;2022-09-09T03:17:27;1.35;;;1.20;;
14770;SDS011;7477;45.222;5.688;2022-09-09T03:20:46;3.03;;;1.35;;
14770;SDS011;7477;45.222;5.688;2022-09-09T03:24:09;1.27;;;1.00;;
14770;SDS011;7477;45.222;5.688;2022-09-09T03:27:28;3.80;;;1.33;;
14770;SDS011;7477;45.222;5.688;2022-09-09T03:30:48;5.93;;;1.45;;
14770;SDS011;7477;45.222;5.688;2022-09-09T03:34:07;2.38;;;1.27;;
14770;SDS011;7477;45.222;5.688;2022-09-09T03:37:27;1.00;;;1.00;;
14770;SDS011;7477;45.222;5.688;2022-09-09T03:40:50;3.17;;;1.48;;
14770;SDS011;7477;45.222;5.688;2022-09-09T03:44:14;5.30;;;1.40;;
14770;SDS011;7477;45.222;5.688;2022-09-09T03:47:34;2.10;;;1.52;;
14770;SDS011;7477;45.222;5.688;2022-09-09T03:50:54;3.65;;;1.30;;
14770;SDS011;7477;45.222;5.688;2022-09-09T03:54:14;3.13;;;1.60;;
14770;SDS011;7477;45.222;5.688;2022-09-09T03:57:33;2.20;;;1.58;;
14770;SDS011;7477;45.222;5.688;2022-09-09T04:01:13;2.53;;;1.35;;
14770;SDS011;7477;45.222;5.688;2022-09-09T04:04:33;4.72;;;1.15;;
14770;SDS011;7477;45.222;5.688;2022-09-09T04:07:52;1.52;;;1.23;;
14770;SDS011;7477;45.222;5.688;2022-09-09T04:11:11;2.20;;;1.42;;
14770;SDS011;7477;45.222;5.688;2022-09-09T04:14:30;6.45;;;1.48;;
14770;SDS011;7477;45.222;5.688;2022-09-09T04:17:50;1.85;;;1.30;;
14770;SDS011;7477;45.222;5.688;2022-09-09T04:21:10;2.53;;;1.40;;
14770;SDS011;7477;45.222;5.688;2022-09-09T04:24:30;3.50;;;1.35;;
14770;SDS011;7477;45.222;5.688;2022-09-09T04:27:57;2.00;;;1.30;;
14770;SDS011;7477;45.222;5.688;2022-09-09T04:31:17;11.05;;;1.60;;
14770;SDS011;7477;45.222;5.688;2022-09-09T04:34:40;3.70;;;1.50;;
14770;SDS011;7477;45.222;5.688;2022-09-09T04:38:00;3.05;;;1.52;;
14770;SDS011;7477;45.222;5.688;2022-09-09T04:41:21;3.10;;;1.40;;
14770;SDS011;7477;45.222;5.688;2022-09-09T04:44:40;1.58;;;1.42;;
14770;SDS011;7477;45.222;5.688;2022-09-09T04:47:59;6.93;;;1.60;;
14770;SDS011;7477;45.222;5.688;2022-09-09T04:51:19;3.45;;;1.52;;
14770;SDS011;7477;45.222;5.688;2022-09-09T04:54:38;2.80;;;1.83;;
14770;SDS011;7477;45.222;5.688;2022-09-09T04:58:02;3.78;;;1.73;;
14770;SDS011;7477;45.222;5.688;2022-09-09T05:01:23;3.45;;;1.52;;
14770;SDS011;7477;45.222;5.688;2022-09-09T05:04:43;3.90;;;1.48;;
14770;SDS011;7477;45.222;5.688;2022-09-09T05:08:06;2.17;;;1.30;;
14770;SDS011;7477;45.222;5.688;2022-09-09T05:11:28;1.45;;;1.10;;
14770;SDS011;7477;45.222;5.688;2022-09-09T05:14:48;3.08;;;1.48;;
14770;SDS011;7477;45.222;5.688;2022-09-09T05:18:08;3.53;;;1.33;;
14770;SDS011;7477;45.222;5.688;2022-09-09T05:21:28;2.20;;;1.33;;
14770;SDS011;7477;45.222;5.688;2022-09-09T05:24:49;3.72;;;1.50;;
14770;SDS011;7477;45.222;5.688;2022-09-09T05:28:11;3.92;;;1.90;;
14770;SDS011;7477;45.222;5.688;2022-09-09T05:31:31;3.55;;;1.30;;
14770;SDS011;7477;45.222;5.688;2022-09-09T05:34:51;1.27;;;1.20;;
14770;SDS011;7477;45.222;5.688;2022-09-09T05:38:10;1.70;;;1.40;;
14770;SDS011;7477;45.222;5.688;2022-09-09T05:41:30;2.63;;;1.38;;
14770;SDS011;7477;45.222;5.688;2022-09-09T05:44:50;2.95;;;1.70;;
14770;SDS011;7477;45.222;5.688;2022-09-09T05:48:09;2.13;;;1.58;;
14770;SDS011;7477;45.222;5.688;2022-09-09T05:51:28;2.90;;;1.60;;
14770;SDS011;7477;45.222;5.688;2022-09-09T05:54:51;3.20;;;1.52;;
14770;SDS011;7477;45.222;5.688;2022-09-09T05:58:10;4.85;;;1.40;;
14770;SDS011;7477;45.222;5.688;2022-09-09T06:01:34;3.55;;;1.60;;
14770;SDS011;7477;45.222;5.688;2022-09-09T06:04:55;1.85;;;1.40;;
14770;SDS011;7477;45.222;5.688;2022-09-09T06:08:14;3.67;;;1.15;;
14770;SDS011;7477;45.222;5.688;2022-09-09T06:11:35;1.85;;;1.52;;
14770;SDS011;7477;45.222;5.688;2022-09-09T06:14:56;3.70;;;1.50;;
14770;SDS011;7477;45.222;5.688;2022-09-09T06:18:15;3.92;;;1.80;;
14770;SDS011;7477;45.222;5.688;2022-09-09T06:21:37;3.72;;;1.52;;
14770;SDS011;7477;45.222;5.688;2022-09-09T06:24:56;3.25;;;1.60;;
14770;SDS011;7477;45.222;5.688;2022-09-09T06:28:15;3.33;;;1.45;;
14770;SDS011;7477;45.222;5.688;2022-09-09T06:31:35;2.35;;;1.27;;
14770;SDS011;7477;45.222;5.688;2022-09-09T06:34:55;2.00;;;1.48;;
14770;SDS011;7477;45.222;5.688;2022-09-09T06:38:14;3.25;;;1.60;;
14770;SDS011;7477;45.222;5.688;2022-09-09T06:41:33;5.82;;;1.45;;
14770;SDS011;7477;45.222;5.688;2022-09-09T06:44:53;3.78;;;1.38;;
14770;SDS011;7477;45.222;5.688;2022-09-09T06:48:12;1.70;;;1.38;;
14770;SDS011;7477;45.222;5.688;2022-09-09T06:51:36;3.40;;;1.60;;
14770;SDS011;7477;45.222;5.688;2022-09-09T06:55:01;5.03;;;1.35;;
14770;SDS011;7477;45.222;5.688;2022-09-09T06:58:21;2.22;;;1.48;;
14770;SDS011;7477;45.222;5.688;2022-09-09T07:01:41;5.50;;;1.95;;
14770;SDS011;7477;45.222;5.688;2022-09-09T07:05:05;3.45;;;1.85;;
14770;SDS011;7477;45.222;5.688;2022-09-09T07:08:25;5.18;;;1.70;;
14770;SDS011;7477;45.222;5.688;2022-09-09T07:11:46;2.40;;;1.80;;
14770;SDS011;7477;45.222;5.688;2022-09-09T07:15:08;1.55;;;1.45;;
14770;SDS011;7477;45.222;5.688;2022-09-09T07:18:28;4.00;;;1.90;;
14770;SDS011;7477;45.222;5.688;2022-09-09T07:21:47;7.30;;;1.90;;
14770;SDS011;7477;45.222;5.688;2022-09-09T07:25:07;4.32;;;1.70;;
14770;SDS011;7477;45.222;5.688;2022-09-09T07:28:27;4.57;;;2.05;;
14770;SDS011;7477;45.222;5.688;2022-09-09T07:31:49;3.05;;;1.65;;
14770;SDS011;7477;45.222;5.688;2022-09-09T07:35:08;3.58;;;1.60;;
14770;SDS011;7477;45.222;5.688;2022-09-09T07:38:27;5.20;;;1.70;;
14770;SDS011;7477;45.222;5.688;2022-09-09T07:41:48;3.05;;;1.50;;
14770;SDS011;7477;45.222;5.688;2022-09-09T07:45:09;5.80;;;2.33;;
14770;SDS011;7477;45.222;5.688;2022-09-09T07:48:28;2.65;;;1.50;;
14770;SDS011;7477;45.222;5.688;2022-09-09T07:51:48;5.85;;;1.77;;
14770;SDS011;7477;45.222;5.688;2022-09-09T07:55:08;1.80;;;1.65;;
14770;SDS011;7477;45.222;5.688;2022-09-09T07:58:27;6.05;;;1.67;;
14770;SDS011;7477;45.222;5.688;2022-09-09T08:01:48;3.22;;;1.67;;
14770;SDS011;7477;45.222;5.688;2022-09-09T08:05:12;3.72;;;1.75;;
14770;SDS011;7477;45.222;5.688;2022-09-09T08:08:32;4.15;;;1.90;;
14770;SDS011;7477;45.222;5.688;2022-09-09T08:11:53;4.43;;;1.92;;
14770;SDS011;7477;45.222;5.688;2022-09-09T08:15:13;5.03;;;1.73;;
14770;SDS011;7477;45.222;5.688;2022-09-09T08:18:33;5.78;;;2.00;;
14770;SDS011;7477;45.222;5.688;2022-09-09T08:21:53;3.25;;;2.00;;
14770;SDS011;7477;45.222;5.688;2022-09-09T08:25:12;2.97;;;1.63;;
14770;SDS011;7477;45.222;5.688;2022-09-09T08:28:32;3.47;;;2.05;;
14770;SDS011;7477;45.222;5.688;2022-09-09T08:31:52;2.17;;;1.60;;
14770;SDS011;7477;45.222;5.688;2022-09-09T08:35:16;2.80;;;1.90;;
14770;SDS011;7477;45.222;5.688;2022-09-09T08:38:36;2.80;;;1.85;;
14770;SDS011;7477;45.222;5.688;2022-09-09T08:45:48;4.07;;;1.85;;
14770;SDS011;7477;45.222;5.688;2022-09-09T08:52:57;1.80;;;1.27;;
14770;SDS011;7477;45.222;5.688;2022-09-09T08:56:30;2.95;;;1.17;;
14770;SDS011;7477;45.222;5.688;2022-09-09T08:59:51;2.42;;;1.27;;
14770;SDS011;7477;45.222;5.688;2022-09-09T09:03:15;3.78;;;1.23;;
14770;SDS011;7477;45.222;5.688;2022-09-09T09:13:52;1.98;;;1.10;;
14770;SDS011;7477;45.222;5.688;2022-09-09T09:17:20;2.33;;;0.95;;
14770;SDS011;7477;45.222;5.688;2022-09-09T09:20:45;2.33;;;1.17;;
14770;SDS011;7477;45.222;5.688;2022-09-09T09:24:37;2.35;;;1.00;;
14770;SDS011;7477;45.222;5.688;2022-09-09T09:28:18;1.85;;;1.02;;
14770;SDS011;7477;45.222;5.688;2022-09-09T09:31:56;1.38;;;1.00;;
14770;SDS011;7477;45.222;5.688;2022-09-09T09:35:20;3.13;;;1.02;;
14770;SDS011;7477;45.222;5.688;2022-09-09T09:38:40;1.90;;;1.15;;
14770;SDS011;7477;45.222;5.688;2022-09-09T09:42:10;0.90;;;0.90;;
14770;SDS011;7477;45.222;5.688;2022-09-09T09:45:42;2.03;;;1.00;;
14770;SDS011;7477;45.222;5.688;2022-09-09T09:49:08;1.58;;;1.13;;
14770;SDS011;7477;45.222;5.688;2022-09-09T09:52:29;1.98;;;1.00;;
14770;SDS011;7477;45.222;5.688;2022-09-09T09:55:57;2.58;;;1.15;;
14770;SDS011;7477;45.222;5.688;2022-09-09T10:02:53;1.55;;;1.00;;
14770;SDS011;7477;45.222;5.688;2022-09-09T10:06:13;2.55;;;1.10;;
14770;SDS011;7477;45.222;5.688;2022-09-09T10:09:32;2.30;;;1.10;;
14770;SDS011;7477;45.222;5.688;2022-09-09T10:20:20;1.92;;;1.20;;
14770;SDS011;7477;45.222;5.688;2022-09-09T10:27:40;2.42;;;1.10;;
14770;SDS011;7477;45.222;5.688;2022-09-09T10:31:16;1.52;;;1.08;;
14770;SDS011;7477;45.222;5.688;2022-09-09T10:35:10;2.22;;;1.40;;
14770;SDS011;7477;45.222;5.688;2022-09-09T10:38:47;2.83;;;1.40;;
14770;SDS011;7477;45.222;5.688;2022-09-09T10:42:14;2.85;;;1.10;;
14770;SDS011;7477;45.222;5.688;2022-09-09T10:45:39;0.93;;;0.85;;
14770;SDS011;7477;45.222;5.688;2022-09-09T10:56:21;3.50;;;1.35;;
14770;SDS011;7477;45.222;5.688;2022-09-09T10:59:47;2.30;;;1.20;;
14770;SDS011;7477;45.222;5.688;2022-09-09T11:03:17;2.15;;;1.30;;
14770;SDS011;7477;45.222;5.688;2022-09-09T11:06:41;3.75;;;1.35;;
14770;SDS011;7477;45.222;5.688;2022-09-09T11:10:05;2.08;;;1.10;;
14770;SDS011;7477;45.222;5.688;2022-09-09T11:17:14;3.90;;;1.42;;
14770;SDS011;7477;45.222;5.688;2022-09-09T11:20:36;5.72;;;2.03;;
14770;SDS011;7477;45.222;5.688;2022-09-09T11:23:57;7.75;;;2.13;;
14770;SDS011;7477;45.222;5.688;2022-09-09T11:27:23;8.40;;;2.38;;
14770;SDS011;7477;45.222;5.688;2022-09-09T11:41:15;2.33;;;1.02;;
14770;SDS011;7477;45.222;5.688;2022-09-09T11:44:35;2.95;;;1.20;;
14770;SDS011;7477;45.222;5.688;2022-09-09T11:47:59;3.53;;;1.35;;
14770;SDS011;7477;45.222;5.688;2022-09-09T11:54:46;1.67;;;1.10;;
14770;SDS011;7477;45.222;5.688;2022-09-09T12:05:09;1.67;;;1.13;;
14770;SDS011;7477;45.222;5.688;2022-09-09T12:08:31;1.58;;;0.93;;
14770;SDS011;7477;45.222;5.688;2022-09-09T12:11:50;1.75;;;1.20;;
14770;SDS011;7477;45.222;5.688;2022-09-09T12:18:34;1.80;;;0.85;;
14770;SDS011;7477;45.222;5.688;2022-09-09T12:22:00;1.95;;;1.02;;
14770;SDS011;7477;45.222;5.688;2022-09-09T12:29:21;2.28;;;1.05;;
14770;SDS011;7477;45.222;5.688;2022-09-09T12:32:47;1.27;;;1.00;;
14770;SDS011;7477;45.222;5.688;2022-09-09T12:36:24;0.88;;;0.88;;
14770;SDS011;7477;45.222;5.688;2022-09-09T12:39:53;0.90;;;0.90;;
14770;SDS011;7477;45.222;5.688;2022-09-09T12:43:19;4.32;;;1.27;;
14770;SDS011;7477;45.222;5.688;2022-09-09T12:46:44;0.80;;;0.80;;
14770;SDS011;7477;45.222;5.688;2022-09-09T12:50:05;1.65;;;1.00;;
14770;SDS011;7477;45.222;5.688;2022-09-09T12:53:34;2.47;;;1.00;;
14770;SDS011;7477;45.222;5.688;2022-09-09T12:56:55;1.77;;;0.90;;
14770;SDS011;7477;45.222;5.688;2022-09-09T13:00:15;2.83;;;0.95;;
14770;SDS011;7477;45.222;5.688;2022-09-09T13:03:42;0.90;;;0.90;;
14770;SDS011;7477;45.222;5.688;2022-09-09T13:07:06;1.15;;;0.85;;
14770;SDS011;7477;45.222;5.688;2022-09-09T13:10:28;1.52;;;0.90;;
14770;SDS011;7477;45.222;5.688;2022-09-09T13:13:54;2.75;;;0.88;;
14770;SDS011;7477;45.222;5.688;2022-09-09T13:17:17;3.40;;;0.98;;
14770;SDS011;7477;45.222;5.688;2022-09-09T13:20:38;2.05;;;1.20;;
14770;SDS011;7477;45.222;5.688;2022-09-09T13:24:06;2.28;;;1.05;;
14770;SDS011;7477;45.222;5.688;2022-09-09T13:27:41;0.80;;;0.80;;
14770;SDS011;7477;45.222;5.688;2022-09-09T13:35:04;2.58;;;1.00;;
14770;SDS011;7477;45.222;5.688;2022-09-09T13:38:25;1.05;;;0.80;;
14770;SDS011;7477;45.222;5.688;2022-09-09T13:41:48;1.88;;;1.25;;
14770;SDS011;7477;45.222;5.688;2022-09-09T13:45:14;1.05;;;0.90;;
14770;SDS011;7477;45.222;5.688;2022-09-09T13:48:36;1.70;;;0.77;;
14770;SDS011;7477;45.222;5.688;2022-09-09T13:52:11;1.15;;;0.93;;
14770;SDS011;7477;45.222;5.688;2022-09-09T13:55:32;3.25;;;1.00;;
14770;SDS011;7477;45.222;5.688;2022-09-09T13:58:55;2.58;;;1.00;;
14770;SDS011;7477;45.222;5.688;2022-09-09T14:02:15;1.10;;;0.80;;
14770;SDS011;7477;45.222;5.688;2022-09-09T14:05:35;2.78;;;1.08;;
14770;SDS011;7477;45.222;5.688;2022-09-09T14:08:55;2.65;;;1.20;;
14770;SDS011;7477;45.222;5.688;2022-09-09T14:12:14;2.67;;;0.93;;
14770;SDS011;7477;45.222;5.688;2022-09-09T14:15:34;4.13;;;1.10;;
14770;SDS011;7477;45.222;5.688;2022-09-09T14:18:53;3.40;;;1.15;;
14770;SDS011;7477;45.222;5.688;2022-09-09T14:22:14;1.58;;;0.60;;
14770;SDS011;7477;45.222;5.688;2022-09-09T14:25:34;3.92;;;1.20;;
14770;SDS011;7477;45.222;5.688;2022-09-09T14:28:53;4.47;;;1.55;;
14770;SDS011;7477;45.222;5.688;2022-09-09T14:32:12;4.10;;;1.05;;
14770;SDS011;7477;45.222;5.688;2022-09-09T14:35:31;3.30;;;0.90;;
14770;SDS011;7477;45.222;5.688;2022-09-09T14:38:52;4.93;;;1.00;;
14770;SDS011;7477;45.222;5.688;2022-09-09T14:42:11;0.85;;;0.70;;
14770;SDS011;7477;45.222;5.688;2022-09-09T14:45:31;0.55;;;0.55;;
14770;SDS011;7477;45.222;5.688;2022-09-09T14:48:50;0.77;;;0.63;;
14770;SDS011;7477;45.222;5.688;2022-09-09T14:52:10;0.88;;;0.88;;
14770;SDS011;7477;45.222;5.688;2022-09-09T14:55:30;1.38;;;0.88;;
14770;SDS011;7477;45.222;5.688;2022-09-09T14:58:50;1.20;;;0.60;;
14770;SDS011;7477;45.222;5.688;2022-09-09T15:02:11;0.88;;;0.80;;
14770;SDS011;7477;45.222;5.688;2022-09-09T15:05:32;1.33;;;0.80;;
14770;SDS011;7477;45.222;5.688;2022-09-09T15:08:52;0.82;;;0.70;;
14770;SDS011;7477;45.222;5.688;2022-09-09T15:12:12;2.60;;;0.88;;
14770;SDS011;7477;45.222;5.688;2022-09-09T15:15:32;1.73;;;0.80;;
14770;SDS011;7477;45.222;5.688;2022-09-09T15:18:54;2.05;;;0.80;;
14770;SDS011;7477;45.222;5.688;2022-09-09T15:22:15;1.63;;;0.55;;
14770;SDS011;7477;45.222;5.688;2022-09-09T15:25:34;0.73;;;0.73;;
14770;SDS011;7477;45.222;5.688;2022-09-09T15:28:53;0.80;;;0.80;;
14770;SDS011;7477;45.222;5.688;2022-09-09T15:32:13;0.63;;;0.60;;
14770;SDS011;7477;45.222;5.688;2022-09-09T15:35:32;1.30;;;0.88;;
14770;SDS011;7477;45.222;5.688;2022-09-09T15:38:51;1.27;;;0.77;;
14770;SDS011;7477;45.222;5.688;2022-09-09T15:42:11;1.30;;;0.85;;
14770;SDS011;7477;45.222;5.688;2022-09-09T15:45:30;0.77;;;0.77;;
14770;SDS011;7477;45.222;5.688;2022-09-09T15:48:51;1.23;;;0.80;;
14770;SDS011;7477;45.222;5.688;2022-09-09T15:52:12;2.08;;;0.77;;
14770;SDS011;7477;45.222;5.688;2022-09-09T15:55:32;0.70;;;0.70;;
14770;SDS011;7477;45.222;5.688;2022-09-09T15:58:51;0.93;;;0.70;;
14770;SDS011;7477;45.222;5.688;2022-09-09T16:02:10;2.53;;;1.00;;
14770;SDS011;7477;45.222;5.688;2022-09-09T16:05:29;2.80;;;1.00;;
14770;SDS011;7477;45.222;5.688;2022-09-09T16:08:49;0.77;;;0.77;;
14770;SDS011;7477;45.222;5.688;2022-09-09T16:12:10;0.85;;;0.80;;
14770;SDS011;7477;45.222;5.688;2022-09-09T16:15:31;1.55;;;0.70;;
14770;SDS011;7477;45.222;5.688;2022-09-09T16:18:51;1.33;;;0.80;;
14770;SDS011;7477;45.222;5.688;2022-09-09T16:22:12;3.75;;;1.10;;
14770;SDS011;7477;45.222;5.688;2022-09-09T16:25:33;2.47;;;0.80;;
14770;SDS011;7477;45.222;5.688;2022-09-09T16:28:53;1.05;;;0.50;;
14770;SDS011;7477;45.222;5.688;2022-09-09T16:32:13;2.58;;;1.02;;
14770;SDS011;7477;45.222;5.688;2022-09-09T16:35:35;3.45;;;1.25;;
14770;SDS011;7477;45.222;5.688;2022-09-09T16:38:58;4.25;;;0.90;;
14770;SDS011;7477;45.222;5.688;2022-09-09T16:42:19;3.05;;;1.00;;
14770;SDS011;7477;45.222;5.688;2022-09-09T16:45:42;2.08;;;1.00;;
14770;SDS011;7477;45.222;5.688;2022-09-09T16:49:03;1.73;;;0.95;;
14770;SDS011;7477;45.222;5.688;2022-09-09T16:52:24;1.77;;;0.90;;
14770;SDS011;7477;45.222;5.688;2022-09-09T16:55:43;4.43;;;0.90;;
14770;SDS011;7477;45.222;5.688;2022-09-09T16:59:04;3.03;;;1.10;;
14770;SDS011;7477;45.222;5.688;2022-09-09T17:02:25;3.33;;;0.98;;
14770;SDS011;7477;45.222;5.688;2022-09-09T17:05:44;2.25;;;1.20;;
14770;SDS011;7477;45.222;5.688;2022-09-09T17:09:05;4.35;;;1.00;;
14770;SDS011;7477;45.222;5.688;2022-09-09T17:12:26;1.83;;;0.90;;
14770;SDS011;7477;45.222;5.688;2022-09-09T17:15:45;1.05;;;0.88;;
14770;SDS011;7477;45.222;5.688;2022-09-09T17:19:04;1.27;;;0.85;;
14770;SDS011;7477;45.222;5.688;2022-09-09T17:22:24;1.48;;;1.20;;
14770;SDS011;7477;45.222;5.688;2022-09-09T17:25:45;1.10;;;1.00;;
14770;SDS011;7477;45.222;5.688;2022-09-09T17:29:15;3.92;;;1.02;;
14770;SDS011;7477;45.222;5.688;2022-09-09T17:32:36;2.00;;;1.10;;
14770;SDS011;7477;45.222;5.688;2022-09-09T17:35:55;3.20;;;1.20;;
14770;SDS011;7477;45.222;5.688;2022-09-09T17:39:14;3.58;;;1.05;;
14770;SDS011;7477;45.222;5.688;2022-09-09T17:42:33;1.33;;;1.23;;
14770;SDS011;7477;45.222;5.688;2022-09-09T17:45:52;1.02;;;1.00;;
14770;SDS011;7477;45.222;5.688;2022-09-09T17:49:13;1.38;;;0.90;;
14770;SDS011;7477;45.222;5.688;2022-09-09T17:52:34;1.23;;;1.00;;
14770;SDS011;7477;45.222;5.688;2022-09-09T17:55:53;4.75;;;1.15;;
14770;SDS011;7477;45.222;5.688;2022-09-09T17:59:14;3.40;;;1.42;;
14770;SDS011;7477;45.222;5.688;2022-09-09T18:02:34;3.30;;;1.05;;
14770;SDS011;7477;45.222;5.688;2022-09-09T18:05:58;3.10;;;1.00;;
14770;SDS011;7477;45.222;5.688;2022-09-09T18:09:23;0.82;;;0.70;;
14770;SDS011;7477;45.222;5.688;2022-09-09T18:12:44;2.05;;;0.90;;
14770;SDS011;7477;45.222;5.688;2022-09-09T18:16:05;2.28;;;0.80;;
14770;SDS011;7477;45.222;5.688;2022-09-09T18:19:27;1.35;;;1.00;;
14770;SDS011;7477;45.222;5.688;2022-09-09T18:22:49;1.67;;;0.80;;
14770;SDS011;7477;45.222;5.688;2022-09-09T18:26:09;3.60;;;0.80;;
14770;SDS011;7477;45.222;5.688;2022-09-09T18:29:30;1.75;;;0.93;;
14770;SDS011;7477;45.222;5.688;2022-09-09T18:32:50;1.67;;;1.02;;
14770;SDS011;7477;45.222;5.688;2022-09-09T18:36:11;1.08;;;1.00;;
14770;SDS011;7477;45.222;5.688;2022-09-09T18:39:33;1.15;;;0.98;;
14770;SDS011;7477;45.222;5.688;2022-09-09T18:42:52;2.95;;;0.80;;
14770;SDS011;7477;45.222;5.688;2022-09-09T18:46:12;2.03;;;1.17;;
14770;SDS011;7477;45.222;5.688;2022-09-09T18:49:31;1.23;;;0.90;;
14770;SDS011;7477;45.222;5.688;2022-09-09T18:52:51;2.05;;;1.08;;
14770;SDS011;7477;45.222;5.688;2022-09-09T18:56:11;1.60;;;0.95;;
14770;SDS011;7477;45.222;5.688;2022-09-09T18:59:31;1.88;;;1.23;;
14770;SDS011;7477;45.222;5.688;2022-09-09T19:02:50;2.58;;;1.02;;
14770;SDS011;7477;45.222;5.688;2022-09-09T19:06:11;4.75;;;1.40;;
14770;SDS011;7477;45.222;5.688;2022-09-09T19:09:32;2.80;;;1.23;;
14770;SDS011;7477;45.222;5.688;2022-09-09T19:12:52;1.15;;;0.77;;
14770;SDS011;7477;45.222;5.688;2022-09-09T19:16:13;3.42;;;0.90;;
14770;SDS011;7477;45.222;5.688;2022-09-09T19:19:32;2.75;;;0.88;;
14770;SDS011;7477;45.222;5.688;2022-09-09T19:22:52;2.28;;;1.15;;
14770;SDS011;7477;45.222;5.688;2022-09-09T19:26:12;1.27;;;0.80;;
14770;SDS011;7477;45.222;5.688;2022-09-09T19:29:35;2.38;;;1.17;;
14770;SDS011;7477;45.222;5.688;2022-09-09T19:32:57;1.02;;;0.80;;
14770;SDS011;7477;45.222;5.688;2022-09-09T19:36:17;0.73;;;0.60;;
14770;SDS011;7477;45.222;5.688;2022-09-09T19:39:36;1.45;;;0.90;;
14770;SDS011;7477;45.222;5.688;2022-09-09T19:42:55;1.52;;;0.85;;
14770;SDS011;7477;45.222;5.688;2022-09-09T19:46:15;4.75;;;1.05;;
14770;SDS011;7477;45.222;5.688;2022-09-09T19:49:39;0.93;;;0.88;;
14770;SDS011;7477;45.222;5.688;2022-09-09T19:52:58;1.52;;;0.93;;
14770;SDS011;7477;45.222;5.688;2022-09-09T19:56:20;0.60;;;0.60;;
14770;SDS011;7477;45.222;5.688;2022-09-09T19:59:41;2.33;;;1.23;;
14770;SDS011;7477;45.222;5.688;2022-09-09T20:03:00;2.28;;;1.05;;
14770;SDS011;7477;45.222;5.688;2022-09-09T20:06:20;3.28;;;1.30;;
14770;SDS011;7477;45.222;5.688;2022-09-09T20:09:41;2.33;;;1.25;;
14770;SDS011;7477;45.222;5.688;2022-09-09T20:13:01;2.97;;;1.23;;
14770;SDS011;7477;45.222;5.688;2022-09-09T20:16:21;3.08;;;1.20;;
14770;SDS011;7477;45.222;5.688;2022-09-09T20:19:44;1.95;;;0.95;;
14770;SDS011;7477;45.222;5.688;2022-09-09T20:23:03;1.90;;;1.10;;
14770;SDS011;7477;45.222;5.688;2022-09-09T20:26:23;3.55;;;1.75;;
14770;SDS011;7477;45.222;5.688;2022-09-09T20:29:43;2.25;;;1.27;;
14770;SDS011;7477;45.222;5.688;2022-09-09T20:33:05;3.53;;;1.40;;
14770;SDS011;7477;45.222;5.688;2022-09-09T20:36:27;2.42;;;1.10;;
14770;SDS011;7477;45.222;5.688;2022-09-09T20:39:48;2.65;;;1.10;;
14770;SDS011;7477;45.222;5.688;2022-09-09T20:43:09;2.13;;;1.13;;
14770;SDS011;7477;45.222;5.688;2022-09-09T20:46:31;1.55;;;1.10;;
14770;SDS011;7477;45.222;5.688;2022-09-09T20:49:53;3.63;;;0.98;;
14770;SDS011;7477;45.222;5.688;2022-09-09T20:53:13;3.17;;;1.42;;
14770;SDS011;7477;45.222;5.688;2022-09-09T20:56:34;1.45;;;1.00;;
14770;SDS011;7477;45.222;5.688;2022-09-09T20:59:58;1.52;;;1.20;;
14770;SDS011;7477;45.222;5.688;2022-09-09T21:03:17;1.70;;;1.02;;
14770;SDS011;7477;45.222;5.688;2022-09-09T21:06:36;2.13;;;1.02;;
14770;SDS011;7477;45.222;5.688;2022-09-09T21:09:55;1.35;;;1.23;;
14770;SDS011;7477;45.222;5.688;2022-09-09T21:13:14;1.75;;;1.30;;
14770;SDS011;7477;45.222;5.688;2022-09-09T21:16:33;1.95;;;1.27;;
14770;SDS011;7477;45.222;5.688;2022-09-09T21:19:53;1.27;;;1.00;;
14770;SDS011;7477;45.222;5.688;2022-09-09T21:23:12;1.40;;;0.90;;
14770;SDS011;7477;45.222;5.688;2022-09-09T21:26:33;1.60;;;1.13;;
14770;SDS011;7477;45.222;5.688;2022-09-09T21:29:53;3.13;;;1.20;;
14770;SDS011;7477;45.222;5.688;2022-09-09T21:33:12;3.65;;;0.98;;
14770;SDS011;7477;45.222;5.688;2022-09-09T21:36:32;1.73;;;1.00;;
14770;SDS011;7477;45.222;5.688;2022-09-09T21:39:51;2.20;;;1.00;;
14770;SDS011;7477;45.222;5.688;2022-09-09T21:43:12;2.10;;;0.95;;
14770;SDS011;7477;45.222;5.688;2022-09-09T21:46:32;1.90;;;1.08;;
14770;SDS011;7477;45.222;5.688;2022-09-09T21:49:51;1.38;;;0.95;;
14770;SDS011;7477;45.222;5.688;2022-09-09T21:53:11;2.03;;;0.75;;
14770;SDS011;7477;45.222;5.688;2022-09-09T21:56:33;3.58;;;1.00;;
14770;SDS011;7477;45.222;5.688;2022-09-09T21:59:53;2.08;;;0.88;;
14770;SDS011;7477;45.222;5.688;2022-09-09T22:03:13;1.13;;;0.95;;
14770;SDS011;7477;45.222;5.688;2022-09-09T22:06:33;2.47;;;1.00;;
14770;SDS011;7477;45.222;5.688;2022-09-09T22:09:53;4.00;;;1.10;;
14770;SDS011;7477;45.222;5.688;2022-09-09T22:13:13;0.90;;;0.73;;
14770;SDS011;7477;45.222;5.688;2022-09-09T22:16:34;3.38;;;1.00;;
14770;SDS011;7477;45.222;5.688;2022-09-09T22:19:53;3.78;;;0.88;;
14770;SDS011;7477;45.222;5.688;2022-09-09T22:23:13;4.47;;;1.23;;
14770;SDS011;7477;45.222;5.688;2022-09-09T22:26:34;4.20;;;1.33;;
14770;SDS011;7477;45.222;5.688;2022-09-09T22:29:54;1.90;;;0.82;;
14770;SDS011;7477;45.222;5.688;2022-09-09T22:33:13;3.03;;;1.08;;